sensor_id;sensor_type;location;lat;lon;timestamp;P1;durP1;ratioP1;P2;durP2;ratioP2
72895;SDS011;61036;53.224;6.554;2023-02-22T00:00:27;51.30;;;27.17;;
72895;SDS011;61036;53.224;6.554;2023-02-22T00:05:35;49.87;;;27.03;;
72895;SDS011;61036;53.224;6.554;2023-02-22T00:08:03;54.03;;;27.43;;
72895;SDS011;61036;53.224;6.554;2023-02-22T00:10:33;51.23;;;26.63;;
72895;SDS011;61036;53.224;6.554;2023-02-22T00:13:03;49.73;;;26.33;;
72895;SDS011;61036;53.224;6.554;2023-02-22T00:15:32;47.23;;;26.60;;
72895;SDS011;61036;53.224;6.554;2023-02-22T00:17:58;47.07;;;25.53;;
72895;SDS011;61036;53.224;6.554;2023-02-22T00:20:24;45.43;;;24.20;;
72895;SDS011;61036;53.224;6.554;2023-02-22T00:22:50;49.50;;;25.27;;
72895;SDS011;61036;53.224;6.554;2023-02-22T00:25:20;48.47;;;25.40;;
72895;SDS011;61036;53.224;6.554;2023-02-22T00:27:48;44.30;;;23.57;;
72895;SDS011;61036;53.224;6.554;2023-02-22T00:30:21;43.43;;;24.33;;
72895;SDS011;61036;53.224;6.554;2023-02-22T00:32:52;44.60;;;23.93;;
72895;SDS011;61036;53.224;6.554;2023-02-22T00:35:20;46.07;;;24.10;;
72895;SDS011;61036;53.224;6.554;2023-02-22T00:37:51;41.57;;;21.10;;
72895;SDS011;61036;53.224;6.554;2023-02-22T00:40:20;48.50;;;23.83;;
72895;SDS011;61036;53.224;6.554;2023-02-22T00:42:47;38.83;;;21.70;;
72895;SDS011;61036;53.224;6.554;2023-02-22T00:45:15;38.93;;;22.93;;
72895;SDS011;61036;53.224;6.554;2023-02-22T00:47:43;38.93;;;22.80;;
72895;SDS011;61036;53.224;6.554;2023-02-22T00:50:09;45.43;;;23.37;;
72895;SDS011;61036;53.224;6.554;2023-02-22T00:52:35;46.10;;;23.83;;
72895;SDS011;61036;53.224;6.554;2023-02-22T00:55:03;38.40;;;21.33;;
72895;SDS011;61036;53.224;6.554;2023-02-22T00:57:30;39.63;;;21.07;;
72895;SDS011;61036;53.224;6.554;2023-02-22T00:59:59;38.97;;;20.33;;
72895;SDS011;61036;53.224;6.554;2023-02-22T01:02:38;42.70;;;21.27;;
72895;SDS011;61036;53.224;6.554;2023-02-22T01:05:05;37.03;;;20.47;;
72895;SDS011;61036;53.224;6.554;2023-02-22T01:07:34;38.67;;;19.40;;
72895;SDS011;61036;53.224;6.554;2023-02-22T01:10:00;40.93;;;21.27;;
72895;SDS011;61036;53.224;6.554;2023-02-22T01:12:26;38.53;;;20.83;;
72895;SDS011;61036;53.224;6.554;2023-02-22T01:14:52;38.77;;;20.57;;
72895;SDS011;61036;53.224;6.554;2023-02-22T01:17:24;38.70;;;21.60;;
72895;SDS011;61036;53.224;6.554;2023-02-22T01:19:53;37.83;;;20.37;;
72895;SDS011;61036;53.224;6.554;2023-02-22T01:22:19;33.83;;;18.93;;
72895;SDS011;61036;53.224;6.554;2023-02-22T01:24:46;39.70;;;21.40;;
72895;SDS011;61036;53.224;6.554;2023-02-22T01:27:15;34.27;;;19.20;;
72895;SDS011;61036;53.224;6.554;2023-02-22T01:29:42;40.63;;;21.50;;
72895;SDS011;61036;53.224;6.554;2023-02-22T01:32:08;40.97;;;20.43;;
72895;SDS011;61036;53.224;6.554;2023-02-22T01:34:36;36.33;;;20.40;;
72895;SDS011;61036;53.224;6.554;2023-02-22T01:37:02;35.23;;;19.50;;
72895;SDS011;61036;53.224;6.554;2023-02-22T01:39:30;33.13;;;17.87;;
72895;SDS011;61036;53.224;6.554;2023-02-22T01:41:58;33.07;;;18.43;;
72895;SDS011;61036;53.224;6.554;2023-02-22T01:46:58;32.43;;;18.60;;
72895;SDS011;61036;53.224;6.554;2023-02-22T01:49:28;30.70;;;17.17;;
72895;SDS011;61036;53.224;6.554;2023-02-22T01:52:01;28.73;;;16.60;;
72895;SDS011;61036;53.224;6.554;2023-02-22T01:54:30;30.47;;;16.63;;
72895;SDS011;61036;53.224;6.554;2023-02-22T01:57:07;34.10;;;17.50;;
72895;SDS011;61036;53.224;6.554;2023-02-22T01:59:39;27.43;;;16.37;;
72895;SDS011;61036;53.224;6.554;2023-02-22T02:02:08;30.80;;;17.07;;
72895;SDS011;61036;53.224;6.554;2023-02-22T02:04:35;30.80;;;16.40;;
72895;SDS011;61036;53.224;6.554;2023-02-22T02:07:02;33.97;;;18.00;;
72895;SDS011;61036;53.224;6.554;2023-02-22T02:09:34;29.60;;;15.70;;
72895;SDS011;61036;53.224;6.554;2023-02-22T02:12:04;28.30;;;16.03;;
72895;SDS011;61036;53.224;6.554;2023-02-22T02:14:34;25.93;;;14.90;;
72895;SDS011;61036;53.224;6.554;2023-02-22T02:17:05;24.90;;;15.27;;
72895;SDS011;61036;53.224;6.554;2023-02-22T02:25:53;24.30;;;14.30;;
72895;SDS011;61036;53.224;6.554;2023-02-22T02:28:57;24.53;;;13.47;;
72895;SDS011;61036;53.224;6.554;2023-02-22T02:34:13;25.93;;;15.93;;
72895;SDS011;61036;53.224;6.554;2023-02-22T02:36:44;24.07;;;15.33;;
72895;SDS011;61036;53.224;6.554;2023-02-22T02:39:28;27.63;;;16.37;;
72895;SDS011;61036;53.224;6.554;2023-02-22T02:41:58;26.67;;;15.80;;
72895;SDS011;61036;53.224;6.554;2023-02-22T02:44:44;28.07;;;16.77;;
72895;SDS011;61036;53.224;6.554;2023-02-22T02:47:16;29.33;;;17.00;;
72895;SDS011;61036;53.224;6.554;2023-02-22T02:49:48;27.70;;;17.03;;
72895;SDS011;61036;53.224;6.554;2023-02-22T02:52:22;28.00;;;15.93;;
72895;SDS011;61036;53.224;6.554;2023-02-22T02:54:50;27.33;;;15.87;;
72895;SDS011;61036;53.224;6.554;2023-02-22T02:57:17;27.27;;;16.37;;
72895;SDS011;61036;53.224;6.554;2023-02-22T02:59:43;28.10;;;16.90;;
72895;SDS011;61036;53.224;6.554;2023-02-22T03:18:53;30.27;;;17.40;;
72895;SDS011;61036;53.224;6.554;2023-02-22T03:24:29;30.10;;;17.00;;
72895;SDS011;61036;53.224;6.554;2023-02-22T03:27:08;30.57;;;17.30;;
72895;SDS011;61036;53.224;6.554;2023-02-22T03:29:44;28.63;;;16.70;;
72895;SDS011;61036;53.224;6.554;2023-02-22T03:32:16;33.17;;;19.20;;
72895;SDS011;61036;53.224;6.554;2023-02-22T03:34:50;30.83;;;17.67;;
72895;SDS011;61036;53.224;6.554;2023-02-22T03:37:28;32.63;;;18.43;;
72895;SDS011;61036;53.224;6.554;2023-02-22T03:39:58;34.10;;;19.73;;
72895;SDS011;61036;53.224;6.554;2023-02-22T03:42:33;31.67;;;19.47;;
72895;SDS011;61036;53.224;6.554;2023-02-22T03:45:03;37.43;;;20.03;;
72895;SDS011;61036;53.224;6.554;2023-02-22T03:47:36;34.13;;;19.33;;
72895;SDS011;61036;53.224;6.554;2023-02-22T03:50:06;34.07;;;20.33;;
72895;SDS011;61036;53.224;6.554;2023-02-22T03:52:40;33.97;;;19.73;;
72895;SDS011;61036;53.224;6.554;2023-02-22T03:55:12;32.90;;;18.63;;
72895;SDS011;61036;53.224;6.554;2023-02-22T03:57:43;33.10;;;19.57;;
72895;SDS011;61036;53.224;6.554;2023-02-22T04:00:13;34.50;;;20.07;;
72895;SDS011;61036;53.224;6.554;2023-02-22T04:02:45;32.40;;;19.67;;
72895;SDS011;61036;53.224;6.554;2023-02-22T04:05:17;35.70;;;21.07;;
72895;SDS011;61036;53.224;6.554;2023-02-22T04:07:43;31.53;;;18.07;;
72895;SDS011;61036;53.224;6.554;2023-02-22T04:10:11;35.83;;;20.13;;
72895;SDS011;61036;53.224;6.554;2023-02-22T04:12:37;28.57;;;18.37;;
72895;SDS011;61036;53.224;6.554;2023-02-22T04:15:05;33.67;;;20.30;;
72895;SDS011;61036;53.224;6.554;2023-02-22T04:17:32;35.57;;;20.00;;
72895;SDS011;61036;53.224;6.554;2023-02-22T04:19:58;36.57;;;20.60;;
72895;SDS011;61036;53.224;6.554;2023-02-22T04:22:28;35.87;;;20.63;;
72895;SDS011;61036;53.224;6.554;2023-02-22T04:24:54;32.77;;;20.00;;
72895;SDS011;61036;53.224;6.554;2023-02-22T04:27:19;31.83;;;19.77;;
72895;SDS011;61036;53.224;6.554;2023-02-22T04:29:45;36.80;;;21.27;;
72895;SDS011;61036;53.224;6.554;2023-02-22T04:32:11;33.70;;;19.87;;
72895;SDS011;61036;53.224;6.554;2023-02-22T04:34:39;35.93;;;21.23;;
72895;SDS011;61036;53.224;6.554;2023-02-22T04:37:05;33.73;;;20.77;;
72895;SDS011;61036;53.224;6.554;2023-02-22T04:39:32;32.67;;;20.40;;
72895;SDS011;61036;53.224;6.554;2023-02-22T04:41:58;33.60;;;20.17;;
72895;SDS011;61036;53.224;6.554;2023-02-22T04:44:23;33.23;;;19.70;;
72895;SDS011;61036;53.224;6.554;2023-02-22T04:46:49;31.47;;;18.90;;
72895;SDS011;61036;53.224;6.554;2023-02-22T04:49:15;31.97;;;18.90;;
72895;SDS011;61036;53.224;6.554;2023-02-22T04:51:42;35.30;;;20.00;;
72895;SDS011;61036;53.224;6.554;2023-02-22T04:54:10;37.40;;;22.20;;
72895;SDS011;61036;53.224;6.554;2023-02-22T04:56:41;37.13;;;21.17;;
72895;SDS011;61036;53.224;6.554;2023-02-22T04:59:06;35.03;;;20.13;;
72895;SDS011;61036;53.224;6.554;2023-02-22T05:01:32;37.63;;;21.10;;
72895;SDS011;61036;53.224;6.554;2023-02-22T05:04:03;36.20;;;20.97;;
72895;SDS011;61036;53.224;6.554;2023-02-22T05:06:29;39.73;;;21.37;;
72895;SDS011;61036;53.224;6.554;2023-02-22T05:08:55;37.07;;;21.77;;
72895;SDS011;61036;53.224;6.554;2023-02-22T05:11:20;36.77;;;21.40;;
72895;SDS011;61036;53.224;6.554;2023-02-22T05:13:46;35.40;;;20.27;;
72895;SDS011;61036;53.224;6.554;2023-02-22T05:16:12;41.17;;;22.63;;
72895;SDS011;61036;53.224;6.554;2023-02-22T05:18:38;37.37;;;21.10;;
72895;SDS011;61036;53.224;6.554;2023-02-22T05:21:03;38.57;;;22.90;;
72895;SDS011;61036;53.224;6.554;2023-02-22T05:23:29;36.37;;;20.73;;
72895;SDS011;61036;53.224;6.554;2023-02-22T05:25:55;35.73;;;22.30;;
72895;SDS011;61036;53.224;6.554;2023-02-22T05:28:20;38.20;;;22.13;;
72895;SDS011;61036;53.224;6.554;2023-02-22T05:30:48;38.47;;;21.57;;
72895;SDS011;61036;53.224;6.554;2023-02-22T05:33:13;37.07;;;21.83;;
72895;SDS011;61036;53.224;6.554;2023-02-22T05:35:39;38.83;;;21.77;;
72895;SDS011;61036;53.224;6.554;2023-02-22T05:38:05;46.57;;;24.90;;
72895;SDS011;61036;53.224;6.554;2023-02-22T05:40:31;44.57;;;25.07;;
72895;SDS011;61036;53.224;6.554;2023-02-22T05:42:57;43.37;;;26.23;;
72895;SDS011;61036;53.224;6.554;2023-02-22T05:45:26;43.33;;;25.27;;
72895;SDS011;61036;53.224;6.554;2023-02-22T05:47:52;42.73;;;23.83;;
72895;SDS011;61036;53.224;6.554;2023-02-22T05:50:19;44.83;;;25.47;;
72895;SDS011;61036;53.224;6.554;2023-02-22T05:52:46;47.37;;;27.13;;
72895;SDS011;61036;53.224;6.554;2023-02-22T05:55:16;45.60;;;25.67;;
72895;SDS011;61036;53.224;6.554;2023-02-22T05:57:44;47.33;;;26.13;;
72895;SDS011;61036;53.224;6.554;2023-02-22T06:00:16;45.50;;;25.47;;
72895;SDS011;61036;53.224;6.554;2023-02-22T06:02:52;50.70;;;27.93;;
72895;SDS011;61036;53.224;6.554;2023-02-22T06:05:21;49.23;;;27.97;;
72895;SDS011;61036;53.224;6.554;2023-02-22T06:07:47;45.80;;;26.70;;
72895;SDS011;61036;53.224;6.554;2023-02-22T06:10:12;49.23;;;26.10;;
72895;SDS011;61036;53.224;6.554;2023-02-22T06:12:38;48.70;;;27.80;;
72895;SDS011;61036;53.224;6.554;2023-02-22T06:15:04;54.70;;;29.43;;
72895;SDS011;61036;53.224;6.554;2023-02-22T06:17:30;46.43;;;26.93;;
72895;SDS011;61036;53.224;6.554;2023-02-22T06:19:57;47.77;;;26.17;;
72895;SDS011;61036;53.224;6.554;2023-02-22T06:22:23;50.67;;;28.90;;
72895;SDS011;61036;53.224;6.554;2023-02-22T06:24:49;53.67;;;29.60;;
72895;SDS011;61036;53.224;6.554;2023-02-22T06:27:14;50.27;;;28.20;;
72895;SDS011;61036;53.224;6.554;2023-02-22T06:29:43;53.97;;;29.27;;
72895;SDS011;61036;53.224;6.554;2023-02-22T06:32:10;52.60;;;29.80;;
72895;SDS011;61036;53.224;6.554;2023-02-22T06:34:36;54.30;;;30.40;;
72895;SDS011;61036;53.224;6.554;2023-02-22T06:37:01;55.93;;;30.47;;
72895;SDS011;61036;53.224;6.554;2023-02-22T06:39:27;61.07;;;31.10;;
72895;SDS011;61036;53.224;6.554;2023-02-22T06:41:52;61.73;;;31.50;;
72895;SDS011;61036;53.224;6.554;2023-02-22T06:44:20;57.87;;;30.13;;
72895;SDS011;61036;53.224;6.554;2023-02-22T06:46:48;59.43;;;31.53;;
72895;SDS011;61036;53.224;6.554;2023-02-22T06:49:18;68.17;;;35.47;;
72895;SDS011;61036;53.224;6.554;2023-02-22T06:51:45;66.73;;;34.17;;
72895;SDS011;61036;53.224;6.554;2023-02-22T06:54:11;58.43;;;31.97;;
72895;SDS011;61036;53.224;6.554;2023-02-22T06:56:36;69.30;;;36.60;;
72895;SDS011;61036;53.224;6.554;2023-02-22T06:59:02;67.43;;;34.53;;
72895;SDS011;61036;53.224;6.554;2023-02-22T07:01:30;65.23;;;33.27;;
72895;SDS011;61036;53.224;6.554;2023-02-22T07:03:55;69.67;;;35.63;;
72895;SDS011;61036;53.224;6.554;2023-02-22T07:06:21;66.10;;;35.30;;
72895;SDS011;61036;53.224;6.554;2023-02-22T07:08:46;73.70;;;36.53;;
72895;SDS011;61036;53.224;6.554;2023-02-22T07:11:12;68.00;;;36.87;;
72895;SDS011;61036;53.224;6.554;2023-02-22T07:13:38;65.63;;;35.53;;
72895;SDS011;61036;53.224;6.554;2023-02-22T07:16:04;65.77;;;35.10;;
72895;SDS011;61036;53.224;6.554;2023-02-22T07:18:30;68.50;;;36.37;;
72895;SDS011;61036;53.224;6.554;2023-02-22T07:20:55;72.03;;;36.37;;
72895;SDS011;61036;53.224;6.554;2023-02-22T07:23:22;64.97;;;33.57;;
72895;SDS011;61036;53.224;6.554;2023-02-22T07:25:48;63.63;;;34.10;;
72895;SDS011;61036;53.224;6.554;2023-02-22T07:28:14;72.37;;;35.77;;
72895;SDS011;61036;53.224;6.554;2023-02-22T07:30:39;69.67;;;35.37;;
72895;SDS011;61036;53.224;6.554;2023-02-22T07:33:06;73.40;;;37.00;;
72895;SDS011;61036;53.224;6.554;2023-02-22T07:35:33;75.63;;;36.83;;
72895;SDS011;61036;53.224;6.554;2023-02-22T07:38:01;78.17;;;36.63;;
72895;SDS011;61036;53.224;6.554;2023-02-22T07:40:28;80.90;;;38.73;;
72895;SDS011;61036;53.224;6.554;2023-02-22T07:43:00;86.27;;;39.60;;
72895;SDS011;61036;53.224;6.554;2023-02-22T07:45:37;77.97;;;38.33;;
72895;SDS011;61036;53.224;6.554;2023-02-22T07:48:03;79.47;;;38.53;;
72895;SDS011;61036;53.224;6.554;2023-02-22T07:50:31;78.47;;;39.50;;
72895;SDS011;61036;53.224;6.554;2023-02-22T07:52:59;80.37;;;38.43;;
72895;SDS011;61036;53.224;6.554;2023-02-22T07:55:27;76.77;;;37.53;;
72895;SDS011;61036;53.224;6.554;2023-02-22T07:57:55;78.37;;;36.90;;
72895;SDS011;61036;53.224;6.554;2023-02-22T08:00:23;77.63;;;38.13;;
72895;SDS011;61036;53.224;6.554;2023-02-22T08:02:53;80.03;;;37.53;;
72895;SDS011;61036;53.224;6.554;2023-02-22T08:05:20;85.73;;;39.57;;
72895;SDS011;61036;53.224;6.554;2023-02-22T08:07:47;75.70;;;38.07;;
72895;SDS011;61036;53.224;6.554;2023-02-22T08:10:16;78.90;;;37.77;;
72895;SDS011;61036;53.224;6.554;2023-02-22T08:12:42;79.90;;;36.53;;
72895;SDS011;61036;53.224;6.554;2023-02-22T08:15:08;81.90;;;40.20;;
72895;SDS011;61036;53.224;6.554;2023-02-22T08:17:40;76.73;;;38.13;;
72895;SDS011;61036;53.224;6.554;2023-02-22T08:20:05;85.70;;;40.97;;
72895;SDS011;61036;53.224;6.554;2023-02-22T08:22:31;86.37;;;39.10;;
72895;SDS011;61036;53.224;6.554;2023-02-22T08:24:59;78.27;;;40.00;;
72895;SDS011;61036;53.224;6.554;2023-02-22T08:27:25;74.83;;;39.03;;
72895;SDS011;61036;53.224;6.554;2023-02-22T08:29:53;82.03;;;40.63;;
72895;SDS011;61036;53.224;6.554;2023-02-22T08:32:19;86.77;;;41.73;;
72895;SDS011;61036;53.224;6.554;2023-02-22T08:34:46;87.70;;;41.07;;
72895;SDS011;61036;53.224;6.554;2023-02-22T08:37:12;77.70;;;39.80;;
72895;SDS011;61036;53.224;6.554;2023-02-22T08:39:38;86.43;;;40.13;;
72895;SDS011;61036;53.224;6.554;2023-02-22T08:42:04;88.40;;;40.87;;
72895;SDS011;61036;53.224;6.554;2023-02-22T08:44:29;83.70;;;41.73;;
72895;SDS011;61036;53.224;6.554;2023-02-22T08:46:55;81.93;;;40.73;;
72895;SDS011;61036;53.224;6.554;2023-02-22T08:49:20;87.93;;;43.67;;
72895;SDS011;61036;53.224;6.554;2023-02-22T08:51:49;77.23;;;38.17;;
72895;SDS011;61036;53.224;6.554;2023-02-22T08:54:14;82.83;;;40.57;;
72895;SDS011;61036;53.224;6.554;2023-02-22T08:56:41;84.30;;;40.03;;
72895;SDS011;61036;53.224;6.554;2023-02-22T08:59:07;86.43;;;41.97;;
72895;SDS011;61036;53.224;6.554;2023-02-22T09:01:32;86.03;;;42.10;;
72895;SDS011;61036;53.224;6.554;2023-02-22T09:03:58;83.70;;;41.43;;
72895;SDS011;61036;53.224;6.554;2023-02-22T09:06:24;84.33;;;40.23;;
72895;SDS011;61036;53.224;6.554;2023-02-22T09:08:50;81.43;;;41.13;;
72895;SDS011;61036;53.224;6.554;2023-02-22T09:11:15;79.90;;;42.03;;
72895;SDS011;61036;53.224;6.554;2023-02-22T09:13:42;77.00;;;40.37;;
72895;SDS011;61036;53.224;6.554;2023-02-22T09:16:08;86.43;;;41.80;;
72895;SDS011;61036;53.224;6.554;2023-02-22T09:18:34;78.27;;;40.30;;
72895;SDS011;61036;53.224;6.554;2023-02-22T09:20:59;80.17;;;39.73;;
72895;SDS011;61036;53.224;6.554;2023-02-22T09:23:25;75.60;;;39.40;;
72895;SDS011;61036;53.224;6.554;2023-02-22T09:25:52;79.27;;;39.17;;
72895;SDS011;61036;53.224;6.554;2023-02-22T09:28:18;76.70;;;40.27;;
72895;SDS011;61036;53.224;6.554;2023-02-22T09:30:44;78.60;;;39.60;;
72895;SDS011;61036;53.224;6.554;2023-02-22T09:33:14;84.93;;;41.40;;
72895;SDS011;61036;53.224;6.554;2023-02-22T09:35:42;80.97;;;41.07;;
72895;SDS011;61036;53.224;6.554;2023-02-22T09:38:15;75.37;;;39.57;;
72895;SDS011;61036;53.224;6.554;2023-02-22T09:43:48;73.33;;;40.00;;
72895;SDS011;61036;53.224;6.554;2023-02-22T09:51:41;81.70;;;40.10;;
72895;SDS011;61036;53.224;6.554;2023-02-22T09:54:23;76.43;;;39.90;;
72895;SDS011;61036;53.224;6.554;2023-02-22T09:56:59;76.83;;;39.87;;
72895;SDS011;61036;53.224;6.554;2023-02-22T09:59:30;77.83;;;40.97;;
72895;SDS011;61036;53.224;6.554;2023-02-22T10:02:25;76.20;;;39.60;;
72895;SDS011;61036;53.224;6.554;2023-02-22T10:07:57;74.63;;;38.60;;
72895;SDS011;61036;53.224;6.554;2023-02-22T10:10:34;77.90;;;39.57;;
72895;SDS011;61036;53.224;6.554;2023-02-22T10:13:14;79.33;;;40.67;;
72895;SDS011;61036;53.224;6.554;2023-02-22T10:16:11;78.07;;;38.87;;
72895;SDS011;61036;53.224;6.554;2023-02-22T10:26:52;71.37;;;37.10;;
72895;SDS011;61036;53.224;6.554;2023-02-22T10:32:14;76.87;;;37.13;;
72895;SDS011;61036;53.224;6.554;2023-02-22T10:34:49;73.07;;;35.97;;
72895;SDS011;61036;53.224;6.554;2023-02-22T10:37:22;74.33;;;38.83;;
72895;SDS011;61036;53.224;6.554;2023-02-22T10:39:58;80.77;;;38.67;;
72895;SDS011;61036;53.224;6.554;2023-02-22T10:42:30;77.03;;;37.97;;
72895;SDS011;61036;53.224;6.554;2023-02-22T10:44:56;79.97;;;39.47;;
72895;SDS011;61036;53.224;6.554;2023-02-22T10:47:21;80.10;;;39.00;;
72895;SDS011;61036;53.224;6.554;2023-02-22T10:49:57;80.33;;;37.83;;
72895;SDS011;61036;53.224;6.554;2023-02-22T10:52:32;74.17;;;37.73;;
72895;SDS011;61036;53.224;6.554;2023-02-22T10:54:59;75.90;;;38.17;;
72895;SDS011;61036;53.224;6.554;2023-02-22T10:57:30;79.33;;;39.47;;
72895;SDS011;61036;53.224;6.554;2023-02-22T10:59:59;78.00;;;37.93;;
72895;SDS011;61036;53.224;6.554;2023-02-22T11:02:57;73.17;;;36.40;;
72895;SDS011;61036;53.224;6.554;2023-02-22T11:05:38;76.33;;;37.37;;
72895;SDS011;61036;53.224;6.554;2023-02-22T11:10:55;80.93;;;38.90;;
72895;SDS011;61036;53.224;6.554;2023-02-22T11:13:26;78.10;;;37.73;;
72895;SDS011;61036;53.224;6.554;2023-02-22T11:15:58;78.23;;;38.60;;
72895;SDS011;61036;53.224;6.554;2023-02-22T11:18:29;78.77;;;38.10;;
72895;SDS011;61036;53.224;6.554;2023-02-22T11:20:58;73.83;;;36.63;;
72895;SDS011;61036;53.224;6.554;2023-02-22T11:23:30;76.20;;;37.80;;
72895;SDS011;61036;53.224;6.554;2023-02-22T11:26:39;82.00;;;41.27;;
72895;SDS011;61036;53.224;6.554;2023-02-22T11:28:49;75.60;;;37.83;;
72895;SDS011;61036;53.224;6.554;2023-02-22T11:31:24;72.70;;;39.07;;
72895;SDS011;61036;53.224;6.554;2023-02-22T11:33:53;70.13;;;36.20;;
72895;SDS011;61036;53.224;6.554;2023-02-22T11:36:37;73.00;;;37.13;;
72895;SDS011;61036;53.224;6.554;2023-02-22T11:41:48;70.83;;;35.03;;
72895;SDS011;61036;53.224;6.554;2023-02-22T11:44:28;71.47;;;36.73;;
72895;SDS011;61036;53.224;6.554;2023-02-22T11:46:55;69.90;;;34.13;;
72895;SDS011;61036;53.224;6.554;2023-02-22T11:49:32;65.13;;;35.23;;
72895;SDS011;61036;53.224;6.554;2023-02-22T11:59:49;71.70;;;36.00;;
72895;SDS011;61036;53.224;6.554;2023-02-22T12:02:53;66.70;;;34.20;;
72895;SDS011;61036;53.224;6.554;2023-02-22T12:05:54;71.60;;;34.97;;
72895;SDS011;61036;53.224;6.554;2023-02-22T12:14:45;73.90;;;36.53;;
72895;SDS011;61036;53.224;6.554;2023-02-22T12:20:26;82.87;;;37.23;;
72895;SDS011;61036;53.224;6.554;2023-02-22T12:23:01;78.00;;;37.70;;
72895;SDS011;61036;53.224;6.554;2023-02-22T12:25:33;76.87;;;38.13;;
72895;SDS011;61036;53.224;6.554;2023-02-22T12:28:09;72.03;;;37.20;;
72895;SDS011;61036;53.224;6.554;2023-02-22T12:31:13;67.50;;;34.83;;
72895;SDS011;61036;53.224;6.554;2023-02-22T12:36:24;65.47;;;33.80;;
72895;SDS011;61036;53.224;6.554;2023-02-22T12:39:22;73.30;;;35.27;;
72895;SDS011;61036;53.224;6.554;2023-02-22T12:45:23;62.93;;;31.60;;
72895;SDS011;61036;53.224;6.554;2023-02-22T12:47:57;66.63;;;33.47;;
72895;SDS011;61036;53.224;6.554;2023-02-22T12:50:43;66.63;;;33.77;;
72895;SDS011;61036;53.224;6.554;2023-02-22T12:53:13;62.33;;;30.73;;
72895;SDS011;61036;53.224;6.554;2023-02-22T12:55:49;58.90;;;30.43;;
72895;SDS011;61036;53.224;6.554;2023-02-22T12:58:29;60.17;;;30.00;;
72895;SDS011;61036;53.224;6.554;2023-02-22T13:01:12;62.47;;;29.27;;
72895;SDS011;61036;53.224;6.554;2023-02-22T13:03:46;66.50;;;32.47;;
72895;SDS011;61036;53.224;6.554;2023-02-22T13:19:42;74.73;;;34.97;;
72895;SDS011;61036;53.224;6.554;2023-02-22T13:22:17;76.40;;;33.53;;
72895;SDS011;61036;53.224;6.554;2023-02-22T13:24:51;75.83;;;34.07;;
72895;SDS011;61036;53.224;6.554;2023-02-22T13:27:42;74.57;;;33.60;;
72895;SDS011;61036;53.224;6.554;2023-02-22T13:30:19;71.50;;;33.13;;
72895;SDS011;61036;53.224;6.554;2023-02-22T13:41:38;75.33;;;32.83;;
72895;SDS011;61036;53.224;6.554;2023-02-22T13:53:02;64.40;;;30.60;;
72895;SDS011;61036;53.224;6.554;2023-02-22T13:55:33;69.87;;;30.67;;
72895;SDS011;61036;53.224;6.554;2023-02-22T13:58:06;67.57;;;31.30;;
72895;SDS011;61036;53.224;6.554;2023-02-22T14:00:42;62.00;;;28.77;;
72895;SDS011;61036;53.224;6.554;2023-02-22T14:05:51;64.87;;;29.63;;
72895;SDS011;61036;53.224;6.554;2023-02-22T14:13:12;59.73;;;28.57;;
72895;SDS011;61036;53.224;6.554;2023-02-22T14:18:25;64.07;;;28.07;;
72895;SDS011;61036;53.224;6.554;2023-02-22T14:26:10;63.00;;;30.87;;
72895;SDS011;61036;53.224;6.554;2023-02-22T14:31:20;56.07;;;27.53;;
72895;SDS011;61036;53.224;6.554;2023-02-22T14:36:31;65.43;;;30.53;;
72895;SDS011;61036;53.224;6.554;2023-02-22T14:39:41;57.60;;;27.13;;
72895;SDS011;61036;53.224;6.554;2023-02-22T14:53:07;60.73;;;28.60;;
72895;SDS011;61036;53.224;6.554;2023-02-22T14:55:37;55.60;;;26.37;;
72895;SDS011;61036;53.224;6.554;2023-02-22T14:58:19;57.67;;;27.63;;
72895;SDS011;61036;53.224;6.554;2023-02-22T15:00:50;64.33;;;28.70;;
72895;SDS011;61036;53.224;6.554;2023-02-22T15:05:46;63.40;;;29.70;;
72895;SDS011;61036;53.224;6.554;2023-02-22T15:08:14;65.33;;;28.60;;
72895;SDS011;61036;53.224;6.554;2023-02-22T15:13:20;55.93;;;27.00;;
72895;SDS011;61036;53.224;6.554;2023-02-22T15:15:54;60.33;;;29.20;;
72895;SDS011;61036;53.224;6.554;2023-02-22T15:21:14;66.00;;;29.70;;
72895;SDS011;61036;53.224;6.554;2023-02-22T15:23:45;54.07;;;27.03;;
72895;SDS011;61036;53.224;6.554;2023-02-22T15:26:33;59.47;;;27.73;;
72895;SDS011;61036;53.224;6.554;2023-02-22T15:29:06;59.00;;;27.33;;
72895;SDS011;61036;53.224;6.554;2023-02-22T15:31:35;57.43;;;27.27;;
72895;SDS011;61036;53.224;6.554;2023-02-22T15:36:47;53.57;;;26.93;;
72895;SDS011;61036;53.224;6.554;2023-02-22T15:39:19;52.83;;;26.87;;
72895;SDS011;61036;53.224;6.554;2023-02-22T15:41:59;57.43;;;28.27;;
72895;SDS011;61036;53.224;6.554;2023-02-22T15:44:43;56.83;;;27.80;;
72895;SDS011;61036;53.224;6.554;2023-02-22T15:47:34;59.07;;;27.73;;
72895;SDS011;61036;53.224;6.554;2023-02-22T15:55:25;50.90;;;26.40;;
72895;SDS011;61036;53.224;6.554;2023-02-22T15:58:09;52.67;;;25.90;;
72895;SDS011;61036;53.224;6.554;2023-02-22T16:00:37;56.13;;;26.63;;
72895;SDS011;61036;53.224;6.554;2023-02-22T16:03:06;56.40;;;27.03;;
72895;SDS011;61036;53.224;6.554;2023-02-22T16:05:39;58.97;;;27.27;;
72895;SDS011;61036;53.224;6.554;2023-02-22T16:08:16;56.80;;;29.23;;
72895;SDS011;61036;53.224;6.554;2023-02-22T16:11:01;57.33;;;27.93;;
72895;SDS011;61036;53.224;6.554;2023-02-22T16:13:37;56.27;;;27.97;;
72895;SDS011;61036;53.224;6.554;2023-02-22T16:16:19;56.87;;;29.03;;
72895;SDS011;61036;53.224;6.554;2023-02-22T16:18:49;56.00;;;27.80;;
72895;SDS011;61036;53.224;6.554;2023-02-22T16:21:19;55.77;;;28.03;;
72895;SDS011;61036;53.224;6.554;2023-02-22T16:23:50;58.03;;;28.57;;
72895;SDS011;61036;53.224;6.554;2023-02-22T16:26:25;56.20;;;28.50;;
72895;SDS011;61036;53.224;6.554;2023-02-22T16:29:01;60.70;;;28.80;;
72895;SDS011;61036;53.224;6.554;2023-02-22T16:31:30;53.80;;;26.90;;
72895;SDS011;61036;53.224;6.554;2023-02-22T16:34:01;58.37;;;28.67;;
72895;SDS011;61036;53.224;6.554;2023-02-22T16:36:38;61.93;;;27.77;;
72895;SDS011;61036;53.224;6.554;2023-02-22T16:39:05;59.57;;;28.37;;
72895;SDS011;61036;53.224;6.554;2023-02-22T16:41:32;54.83;;;28.10;;
72895;SDS011;61036;53.224;6.554;2023-02-22T16:43:58;61.27;;;29.57;;
72895;SDS011;61036;53.224;6.554;2023-02-22T16:46:26;58.53;;;28.40;;
72895;SDS011;61036;53.224;6.554;2023-02-22T16:48:53;56.27;;;28.97;;
72895;SDS011;61036;53.224;6.554;2023-02-22T16:51:20;60.73;;;31.27;;
72895;SDS011;61036;53.224;6.554;2023-02-22T16:53:48;62.50;;;30.10;;
72895;SDS011;61036;53.224;6.554;2023-02-22T16:56:15;62.37;;;30.80;;
72895;SDS011;61036;53.224;6.554;2023-02-22T16:58:44;57.83;;;27.30;;
72895;SDS011;61036;53.224;6.554;2023-02-22T17:01:14;52.03;;;25.73;;
72895;SDS011;61036;53.224;6.554;2023-02-22T17:03:41;54.50;;;27.57;;
72895;SDS011;61036;53.224;6.554;2023-02-22T17:06:06;56.47;;;27.57;;
72895;SDS011;61036;53.224;6.554;2023-02-22T17:08:35;54.53;;;25.93;;
72895;SDS011;61036;53.224;6.554;2023-02-22T17:11:04;57.97;;;28.30;;
72895;SDS011;61036;53.224;6.554;2023-02-22T17:13:31;53.67;;;27.40;;
72895;SDS011;61036;53.224;6.554;2023-02-22T17:15:56;56.27;;;28.93;;
72895;SDS011;61036;53.224;6.554;2023-02-22T17:18:23;60.37;;;28.37;;
72895;SDS011;61036;53.224;6.554;2023-02-22T17:20:52;52.80;;;26.07;;
72895;SDS011;61036;53.224;6.554;2023-02-22T17:23:19;57.30;;;28.80;;